Atlantic - Newfoundland: Past 24 Hour Conditions

 

Port aux Basques

07:30 AM NDT 03 July 2015
Disclaimer

This table is a summary of hourly weather conditions for the past 24 hours.
Please note that these observations might not always be representative of weather conditions over their associated marine area.

Date / Time
(NDT)
Wind(knots) Conditions Visibility(km) Pressure(kPa) Air tempC) Relative humidity(%) Dew pointC)
03 July 2015
7:30 ENE 14 gust 20 Cloudy 0.5 101.1 11 100 11
6:30 E 14 Cloudy 0.2 101.1 11 100 11
5:30 E 14 Cloudy 0.3 101.1 10 100 10
4:30 ESE 13 Cloudy 0.3 101.1 11 100 11
3:30 E 12 Cloudy 0.3 101.2 11 100 11
2:30 E 15 Cloudy 0.3 101.2 11 100 11
1:30 E 15 Cloudy 0.3 101.2 11 100 11
0:30 E 14 Cloudy 2 101.2 11 100 11
02 July 2015
23:30 E 16 Cloudy 4 101.2 11 100 11
22:30 E 19 Cloudy 6 101.2 11 100 11
21:30 E 12 gust 21 Cloudy 2 101.2 11 100 11
20:30 E 15 gust 24 Cloudy 5 101.1 12 100 12
19:30 E 18 gust 25 Cloudy 15 101.1 12 99 12
18:30 E 21 gust 29 Cloudy 3 101.1 12 99 11
17:30 E 25 gust 30 Cloudy 6 101.2 12 99 11
16:30 E 22 gust 27 Cloudy 8 101.2 12 99 12
15:30 E 18 gust 28 Cloudy 6 101.2 11 100 11
14:30 E 22 gust 28 Cloudy 6 101.3 11 100 11
13:30 E 22 gust 29 Light Rain 3 101.3 11 100 11
12:30 E 25 Light Rain 3 101.3 11 100 11
11:30 E 25 gust 31 Cloudy 2 101.4 11 99 11
10:30 E 24 gust 30 Cloudy 2 101.4 12 98 12
9:30 E 19 gust 26 Cloudy 15 101.4 12 95 11
8:30 E 20 gust 26 Cloudy 15 101.4 12 97 11
7:30 E 19 gust 24 Cloudy 15 101.5 12 97 11

Zoom-in to make a selection

Map of Atlantic - Newfoundland marine weather areas Southwestern Grand Banks - 44138 Banquereau - 44139 Tail of the Bank - 44140 Nickerson Bank - 44251 Northeast Burgeo Bank - 44255 Blanc-Sablon Airport Cap Whittle Chevery Natashquan Airport Heath Point Miscou Island Grand Étang Ingonish Beach North Mountain St.Paul Island J.A. Douglas McCurdy Sydney Airport Charlottetown Airport East Point North Cape Argentia Bonavista Burgeo Cape Race Corner Brook Daniel's Harbour Englee Ferolle Point La Scie Port aux Basques Rocky Harbour Sagona Island St. Anthony Airport St. John's Int'l Airport St. Lawrence Stephenville Airport Twillingate Winterland Wreckhouse Cartwright Airport Mary's Harbour Grates Cove Pool's Island Marticot Island Long Pond Eskasoni (First Nations) Îles de la Madeleine Airport
Legend:
buoy Buoy
land station Land Station

Atlantic - Newfoundland Area

Another Region

What we are doing

Date modified: